createdAt,value
2018-12-16T00:01:57.346Z,16.70
2018-12-16T00:04:28.167Z,16.10
2018-12-16T00:06:58.903Z,17.30
2018-12-16T00:09:27.768Z,17.27
2018-12-16T00:11:56.508Z,17.30
2018-12-16T00:14:25.189Z,16.97
2018-12-16T00:16:53.916Z,17.63
2018-12-16T00:19:22.607Z,18.37
2018-12-16T00:21:51.316Z,17.07
2018-12-16T00:24:20.212Z,17.33
2018-12-16T00:27:00.331Z,16.40
2018-12-16T00:29:29.084Z,16.17
2018-12-16T00:31:57.872Z,17.47
2018-12-16T00:34:26.653Z,17.87
2018-12-16T00:36:55.423Z,17.63
2018-12-16T00:39:24.100Z,18.37
2018-12-16T00:41:52.826Z,17.97
2018-12-16T00:44:21.547Z,18.00
2018-12-16T00:46:50.323Z,18.23
2018-12-16T00:49:19.033Z,17.83
2018-12-16T00:51:54.126Z,17.07
2018-12-16T00:54:22.965Z,18.10
2018-12-16T00:56:51.778Z,18.93
2018-12-16T00:59:20.532Z,18.80
2018-12-16T01:01:49.381Z,19.77
2018-12-16T01:04:18.213Z,18.60
2018-12-16T01:06:46.959Z,18.13
2018-12-16T01:09:15.758Z,19.37
2018-12-16T01:11:45.507Z,18.83
2018-12-16T01:14:14.294Z,18.73
2018-12-16T01:16:43.085Z,19.30
2018-12-16T01:19:11.836Z,19.27
2018-12-16T01:21:40.630Z,18.87
2018-12-16T01:24:09.296Z,20.10
2018-12-16T01:26:38.479Z,19.57
2018-12-16T01:29:07.153Z,19.93
2018-12-16T01:31:35.837Z,19.70
2018-12-16T01:34:04.643Z,19.60
2018-12-16T01:36:33.457Z,19.77
2018-12-16T01:39:02.370Z,21.03
2018-12-16T01:41:33.105Z,19.77
2018-12-16T01:44:01.794Z,20.47
2018-12-16T01:46:30.540Z,20.43
2018-12-16T01:48:59.315Z,19.87
2018-12-16T01:51:27.998Z,19.83
2018-12-16T01:53:57.027Z,20.37
2018-12-16T01:56:25.703Z,19.77
2018-12-16T01:58:54.451Z,20.80
2018-12-16T02:01:23.281Z,20.43
2018-12-16T02:03:52.029Z,21.40
2018-12-16T02:06:20.873Z,20.68
2018-12-16T02:08:49.699Z,22.20
2018-12-16T02:11:18.568Z,20.73
2018-12-16T02:13:47.451Z,18.33
2018-12-16T02:16:16.277Z,21.43
2018-12-16T02:18:45.107Z,20.85
2018-12-16T02:21:13.843Z,21.70
2018-12-16T02:23:42.529Z,19.90
2018-12-16T02:26:11.192Z,21.03
2018-12-16T02:28:39.899Z,21.83
2018-12-16T02:31:08.844Z,20.80
2018-12-16T02:33:39.047Z,22.77
2018-12-16T02:36:08.697Z,20.53
2018-12-16T02:38:37.409Z,20.27
2018-12-16T02:41:06.219Z,20.33
2018-12-16T02:43:34.966Z,21.50
2018-12-16T02:46:03.813Z,21.23
2018-12-16T02:48:32.583Z,20.87
2018-12-16T02:51:01.351Z,22.70
2018-12-16T02:53:30.051Z,20.63
2018-12-16T02:55:59.199Z,22.83
2018-12-16T02:58:28.084Z,21.77
2018-12-16T03:00:56.820Z,23.17
2018-12-16T03:03:25.651Z,19.00
2018-12-16T03:05:54.408Z,21.87
2018-12-16T03:08:23.156Z,22.60
2018-12-16T03:10:51.920Z,21.70
2018-12-16T03:13:20.718Z,22.90
2018-12-16T03:15:49.519Z,22.13
2018-12-16T03:18:18.270Z,22.33
2018-12-16T03:20:46.947Z,23.30
2018-12-16T03:23:15.620Z,22.30
2018-12-16T03:25:44.493Z,22.57
2018-12-16T03:28:13.177Z,22.70
2018-12-16T03:30:41.985Z,22.93
2018-12-16T03:33:10.729Z,22.23
2018-12-16T03:35:39.534Z,23.77
2018-12-16T03:38:09.131Z,23.40
2018-12-16T03:40:37.875Z,22.53
2018-12-16T03:43:06.568Z,22.20
2018-12-16T03:45:35.321Z,22.30
2018-12-16T03:48:04.152Z,22.87
2018-12-16T03:50:33.107Z,22.90
2018-12-16T03:53:01.912Z,24.07
2018-12-16T03:55:30.747Z,23.70
2018-12-16T03:57:59.475Z,21.80
2018-12-16T04:00:28.142Z,22.17
2018-12-16T04:02:56.856Z,21.97
2018-12-16T04:05:25.561Z,23.00
2018-12-16T04:07:54.229Z,23.67
2018-12-16T04:10:23.223Z,23.27
2018-12-16T04:12:51.891Z,24.00
2018-12-16T04:15:20.800Z,22.67
2018-12-16T04:17:49.463Z,22.47
2018-12-16T04:20:18.204Z,23.17
2018-12-16T04:22:46.933Z,26.43
2018-12-16T04:25:15.672Z,22.93
2018-12-16T04:27:44.471Z,23.57
2018-12-16T04:30:13.208Z,22.90
2018-12-16T04:32:41.909Z,22.17
2018-12-16T04:35:10.584Z,21.23
2018-12-16T04:37:39.731Z,23.22
2018-12-16T04:40:08.531Z,22.80
2018-12-16T04:42:37.273Z,24.17
2018-12-16T04:45:06.471Z,21.00
2018-12-16T04:47:35.282Z,22.67
2018-12-16T04:50:04.480Z,24.33
2018-12-16T04:52:33.160Z,23.40
2018-12-16T04:55:01.926Z,23.17
2018-12-16T04:57:32.383Z,23.73
2018-12-16T05:00:01.065Z,21.60
2018-12-16T05:02:31.633Z,23.97
2018-12-16T05:05:00.312Z,22.83
2018-12-16T05:07:29.310Z,24.73
2018-12-16T05:10:08.189Z,22.23
2018-12-16T05:12:37.011Z,23.33
2018-12-16T05:15:05.862Z,23.47
2018-12-16T05:17:34.569Z,23.60
2018-12-16T05:20:03.383Z,22.83
2018-12-16T05:22:32.131Z,24.33
2018-12-16T05:25:00.845Z,22.30
2018-12-16T05:27:29.613Z,24.10
2018-12-16T05:29:58.464Z,24.53
2018-12-16T05:32:27.195Z,24.40
2018-12-16T05:34:56.179Z,24.50
2018-12-16T05:37:24.925Z,23.70
2018-12-16T05:39:53.730Z,24.13
2018-12-16T05:42:22.499Z,24.97
2018-12-16T05:44:51.229Z,23.33
2018-12-16T05:47:19.996Z,23.13
2018-12-16T05:49:48.846Z,23.23
2018-12-16T05:52:17.789Z,24.27
2018-12-16T05:54:46.509Z,23.30
2018-12-16T05:57:15.264Z,23.77
2018-12-16T05:59:44.004Z,23.47
2018-12-16T06:02:12.691Z,24.97
2018-12-16T06:04:41.403Z,23.33
2018-12-16T06:07:10.202Z,24.40
2018-12-16T06:09:39.089Z,22.90
2018-12-16T06:12:07.892Z,22.93
2018-12-16T06:14:36.684Z,22.70
2018-12-16T06:17:05.491Z,22.13
2018-12-16T06:19:34.207Z,21.00
2018-12-16T06:22:03.081Z,23.53
2018-12-16T06:24:31.827Z,22.60
2018-12-16T06:27:00.535Z,23.00
2018-12-16T06:29:29.458Z,21.73
2018-12-16T06:31:58.337Z,22.63
2018-12-16T06:34:27.137Z,22.50
2018-12-16T06:36:55.872Z,23.07
2018-12-16T06:39:24.563Z,23.50
2018-12-16T06:41:53.386Z,22.23
2018-12-16T06:44:22.229Z,23.10
2018-12-16T06:46:51.047Z,22.33
2018-12-16T06:49:19.745Z,22.77
2018-12-16T06:51:48.511Z,22.23
2018-12-16T06:54:17.212Z,22.13
2018-12-16T06:56:45.952Z,22.87
2018-12-16T06:59:14.758Z,22.23
2018-12-16T07:01:43.499Z,21.37
2018-12-16T07:04:12.246Z,21.93
2018-12-16T07:06:40.984Z,23.70
2018-12-16T07:09:10.565Z,22.27
2018-12-16T07:11:39.301Z,22.27
2018-12-16T07:14:08.139Z,22.60
2018-12-16T07:16:37.019Z,22.80
2018-12-16T07:19:05.749Z,23.87
2018-12-16T07:21:34.564Z,22.87
2018-12-16T07:24:09.026Z,22.57
2018-12-16T07:26:34.089Z,22.77
2018-12-16T07:29:03.018Z,23.17
2018-12-16T07:31:31.707Z,22.70
2018-12-16T07:34:00.500Z,22.90
2018-12-16T07:36:29.271Z,23.20
2018-12-16T07:38:57.965Z,24.17
2018-12-16T07:41:26.736Z,21.87
2018-12-16T07:43:55.646Z,23.07
2018-12-16T07:46:24.555Z,23.27
2018-12-16T07:48:54.298Z,22.37
2018-12-16T07:51:23.121Z,23.23
2018-12-16T07:53:51.872Z,24.23
2018-12-16T07:56:20.702Z,22.60
2018-12-16T07:58:49.530Z,23.03
2018-12-16T08:01:18.346Z,22.77
2018-12-16T08:03:47.249Z,23.67
2018-12-16T08:06:16.105Z,22.50
2018-12-16T08:08:44.883Z,24.20
2018-12-16T08:11:13.720Z,22.03
2018-12-16T08:13:42.456Z,22.77
2018-12-16T08:16:11.262Z,22.60
2018-12-16T08:18:41.056Z,22.17
2018-12-16T08:21:10.749Z,22.73
2018-12-16T08:23:39.569Z,21.63
2018-12-16T08:26:08.788Z,21.37
2018-12-16T08:28:37.600Z,19.50
2018-12-16T08:31:06.590Z,19.20
2018-12-16T08:33:35.558Z,19.27
2018-12-16T08:36:04.396Z,18.87
2018-12-16T08:38:33.224Z,20.03
2018-12-16T08:41:02.106Z,20.03
2018-12-16T08:43:30.836Z,20.27
2018-12-16T08:45:59.633Z,19.07
2018-12-16T08:48:35.156Z,18.50
2018-12-16T08:51:03.887Z,18.43
2018-12-16T08:53:32.572Z,18.53
2018-12-16T08:56:01.556Z,17.80
2018-12-16T08:58:30.371Z,18.53
2018-12-16T09:00:59.049Z,16.87
2018-12-16T09:03:27.946Z,17.93
2018-12-16T09:05:57.488Z,17.23
2018-12-16T09:08:26.179Z,18.20
2018-12-16T09:10:54.904Z,16.47
2018-12-16T09:13:23.858Z,17.77
2018-12-16T09:15:52.595Z,17.70
2018-12-16T09:18:28.200Z,17.77
2018-12-16T09:20:57.334Z,16.40
2018-12-16T09:23:26.056Z,16.53
2018-12-16T09:25:54.855Z,17.60
2018-12-16T09:28:23.533Z,17.63
2018-12-16T09:30:57.905Z,16.97
2018-12-16T09:33:22.877Z,17.23
2018-12-16T09:35:51.951Z,16.67
2018-12-16T09:38:20.663Z,16.47
2018-12-16T09:40:49.328Z,16.00
2018-12-16T09:43:18.109Z,16.13
2018-12-16T09:45:49.573Z,15.97
2018-12-16T09:48:17.592Z,16.60
2018-12-16T09:50:46.712Z,16.47
2018-12-16T09:53:15.461Z,15.47
2018-12-16T09:55:44.204Z,16.23
2018-12-16T09:58:13.128Z,15.30
2018-12-16T10:00:41.859Z,16.53
2018-12-16T10:03:13.669Z,14.90
2018-12-16T10:05:42.433Z,16.33
2018-12-16T10:08:11.580Z,16.03
2018-12-16T10:10:40.267Z,16.60
2018-12-16T10:13:09.057Z,17.00
2018-12-16T10:15:37.908Z,17.17
2018-12-16T10:18:06.639Z,16.53
2018-12-16T10:20:35.325Z,16.50
2018-12-16T10:23:04.133Z,16.47
2018-12-16T10:25:32.902Z,15.87
2018-12-16T10:28:01.574Z,16.40
2018-12-16T10:30:30.315Z,16.20
2018-12-16T10:32:59.082Z,15.23
2018-12-16T10:35:27.831Z,15.57
2018-12-16T10:37:56.540Z,16.80
2018-12-16T10:40:25.464Z,16.03
2018-12-16T10:42:54.202Z,16.77
2018-12-16T10:45:22.955Z,16.67
2018-12-16T10:47:51.650Z,16.00
2018-12-16T10:50:20.429Z,15.67
2018-12-16T10:52:49.270Z,16.97
2018-12-16T10:55:19.214Z,16.77
2018-12-16T10:57:47.999Z,16.70
2018-12-16T11:01:26.307Z,16.47
2018-12-16T11:03:55.057Z,16.43
2018-12-16T11:06:23.865Z,16.70
2018-12-16T11:08:53.177Z,16.67
2018-12-16T11:11:21.854Z,16.80
2018-12-16T11:13:50.591Z,16.60
2018-12-16T11:16:19.344Z,16.73
2018-12-16T11:18:48.343Z,17.07
2018-12-16T11:21:17.160Z,17.03
2018-12-16T11:23:45.844Z,17.07
2018-12-16T11:26:14.519Z,16.57
2018-12-16T11:28:43.272Z,16.73
2018-12-16T11:31:12.196Z,17.50
2018-12-16T11:33:47.624Z,16.93
2018-12-16T11:36:16.612Z,17.57
2018-12-16T11:38:45.399Z,17.83
2018-12-16T11:41:14.235Z,16.73
2018-12-16T11:43:42.943Z,17.83
2018-12-16T11:46:12.166Z,17.10
2018-12-16T11:48:40.967Z,17.57
2018-12-16T11:51:09.653Z,17.97
2018-12-16T11:53:38.481Z,17.90
2018-12-16T11:56:07.255Z,17.30
2018-12-16T11:58:36.026Z,17.53
2018-12-16T12:01:04.853Z,18.03
2018-12-16T12:03:34.102Z,17.80
2018-12-16T12:06:04.790Z,17.70
2018-12-16T12:08:33.456Z,18.77
2018-12-16T12:11:02.135Z,17.40
2018-12-16T12:13:30.848Z,18.27
2018-12-16T12:15:59.665Z,18.13
2018-12-16T12:18:28.367Z,18.07
2018-12-16T12:20:57.183Z,19.17
2018-12-16T12:23:25.933Z,18.03
2018-12-16T12:25:54.824Z,18.70
2018-12-16T12:28:23.974Z,18.90
2018-12-16T12:30:52.650Z,17.80
2018-12-16T12:33:21.538Z,16.80
2018-12-16T12:35:50.311Z,18.43
2018-12-16T12:38:19.079Z,18.93
2018-12-16T12:40:47.848Z,18.00
2018-12-16T12:43:16.571Z,19.10
2018-12-16T12:45:45.354Z,19.07
2018-12-16T12:48:14.171Z,17.73
2018-12-16T12:50:42.982Z,18.20
2018-12-16T12:53:13.063Z,17.93
2018-12-16T12:55:41.854Z,18.40
2018-12-16T12:58:10.643Z,18.77
2018-12-16T13:00:39.367Z,18.83
2018-12-16T13:03:08.248Z,17.87
2018-12-16T13:05:37.976Z,19.23
2018-12-16T13:08:06.712Z,18.27
2018-12-16T13:10:35.801Z,19.23
2018-12-16T13:13:04.603Z,18.70
2018-12-16T13:15:33.295Z,18.63
2018-12-16T13:18:02.055Z,18.17
2018-12-16T13:20:30.804Z,19.33
2018-12-16T13:22:59.656Z,19.17
2018-12-16T13:26:07.517Z,17.57
2018-12-16T13:28:36.219Z,18.67
2018-12-16T13:31:04.989Z,19.27
2018-12-16T13:33:33.658Z,19.07
2018-12-16T13:36:02.327Z,18.30
2018-12-16T13:38:31.044Z,19.73
2018-12-16T13:40:59.949Z,18.50
2018-12-16T13:43:28.933Z,18.50
2018-12-16T13:45:57.681Z,18.80
2018-12-16T13:48:26.365Z,18.47
2018-12-16T13:50:55.048Z,19.00
2018-12-16T13:53:23.860Z,18.57
2018-12-16T13:55:52.654Z,18.77
2018-12-16T13:58:21.476Z,18.57
2018-12-16T14:00:50.225Z,18.23
2018-12-16T14:03:18.979Z,18.77
2018-12-16T14:05:47.744Z,20.27
2018-12-16T14:08:16.524Z,19.30
2018-12-16T14:10:45.202Z,19.07
2018-12-16T14:13:13.952Z,18.87
2018-12-16T14:15:43.544Z,19.13
2018-12-16T14:18:12.369Z,18.33
2018-12-16T14:20:41.117Z,18.93
2018-12-16T14:23:09.819Z,18.50
2018-12-16T14:25:38.634Z,18.97
2018-12-16T14:28:07.335Z,17.93
2018-12-16T14:30:36.020Z,18.97
2018-12-16T14:33:04.774Z,18.97
2018-12-16T14:35:33.643Z,19.80
2018-12-16T14:38:02.549Z,19.40
2018-12-16T14:40:31.296Z,19.63
2018-12-16T14:43:00.013Z,18.87
2018-12-16T14:45:28.701Z,18.80
2018-12-16T14:47:58.529Z,18.80
2018-12-16T14:50:27.996Z,19.23
2018-12-16T14:52:57.220Z,19.50
2018-12-16T14:55:25.895Z,19.00
2018-12-16T14:57:54.664Z,19.23
2018-12-16T15:00:23.408Z,19.07
2018-12-16T15:02:52.113Z,19.60
2018-12-16T15:05:21.787Z,18.57
2018-12-16T15:07:50.535Z,17.47
2018-12-16T15:10:19.387Z,18.47
2018-12-16T15:12:48.155Z,19.17
2018-12-16T15:15:17.772Z,18.47
2018-12-16T15:17:46.552Z,18.43
2018-12-16T15:20:15.370Z,19.37
2018-12-16T15:22:44.188Z,19.90
2018-12-16T15:25:13.885Z,19.70
2018-12-16T15:27:42.569Z,19.67
2018-12-16T15:30:11.529Z,18.80
2018-12-16T15:32:40.371Z,18.40
2018-12-16T15:35:09.245Z,18.77
2018-12-16T15:37:38.161Z,18.90
2018-12-16T15:40:07.636Z,19.07
2018-12-16T15:42:36.460Z,19.13
2018-12-16T15:45:07.351Z,19.73
2018-12-16T15:47:36.120Z,18.07
2018-12-16T15:50:05.945Z,19.37
2018-12-16T15:52:34.747Z,18.73
2018-12-16T15:55:04.263Z,19.10
2018-12-16T15:57:33.046Z,20.40
2018-12-16T16:00:01.929Z,20.00
2018-12-16T16:02:31.530Z,19.83
2018-12-16T16:05:00.373Z,20.43
2018-12-16T16:07:35.979Z,20.53
2018-12-16T16:10:05.613Z,20.60
2018-12-16T16:12:34.387Z,20.53
2018-12-16T16:15:03.232Z,19.70
2018-12-16T16:17:32.205Z,21.27
2018-12-16T16:20:00.883Z,19.70
2018-12-16T16:22:30.955Z,20.13
2018-12-16T16:24:59.633Z,19.83
2018-12-16T16:27:28.331Z,19.70
2018-12-16T16:29:57.088Z,19.60
2018-12-16T16:32:25.807Z,19.53
2018-12-16T16:34:54.680Z,19.97
2018-12-16T16:37:23.439Z,20.40
2018-12-16T16:39:52.211Z,20.43
2018-12-16T16:42:20.912Z,20.67
2018-12-16T16:44:49.715Z,20.83
2018-12-16T16:47:18.660Z,20.10
2018-12-16T16:49:47.495Z,19.20
2018-12-16T16:52:16.197Z,20.13
2018-12-16T16:54:45.578Z,20.03
2018-12-16T16:57:14.332Z,20.53
2018-12-16T16:59:43.199Z,20.57
2018-12-16T17:02:11.942Z,21.40
2018-12-16T17:04:40.739Z,20.30
2018-12-16T17:07:09.419Z,20.93
2018-12-16T17:09:38.101Z,21.07
2018-12-16T17:12:06.927Z,21.23
2018-12-16T17:14:35.592Z,20.60
2018-12-16T17:17:04.530Z,18.57
2018-12-16T17:19:33.272Z,19.90
2018-12-16T17:22:02.105Z,20.33
2018-12-16T17:24:31.961Z,31.70
2018-12-16T17:27:00.708Z,31.07
2018-12-16T17:29:29.512Z,34.13
2018-12-16T17:31:58.201Z,33.93
2018-12-16T17:34:26.884Z,74.07
2018-12-16T17:36:55.665Z,28.00
2018-12-16T17:39:24.399Z,20.03
2018-12-16T17:41:53.148Z,20.77
2018-12-16T17:44:21.900Z,19.33
2018-12-16T17:46:51.094Z,19.13
2018-12-16T17:49:19.794Z,19.73
2018-12-16T17:51:48.532Z,20.50
2018-12-16T17:54:17.563Z,20.37
2018-12-16T17:56:46.311Z,19.93
2018-12-16T17:59:17.971Z,20.60
2018-12-16T18:01:46.956Z,26.33
2018-12-16T18:04:16.127Z,22.07
2018-12-16T18:06:44.844Z,21.13
2018-12-16T18:09:13.707Z,20.93
2018-12-16T18:11:42.407Z,20.40
2018-12-16T18:14:12.011Z,20.67
2018-12-16T18:16:41.739Z,21.43
2018-12-16T18:19:10.425Z,20.13
2018-12-16T18:21:39.230Z,21.07
2018-12-16T18:24:08.045Z,21.20
2018-12-16T18:26:36.751Z,21.03
2018-12-16T18:29:05.503Z,20.83
2018-12-16T18:31:34.240Z,21.67
2018-12-16T18:34:03.139Z,20.40
2018-12-16T18:36:31.842Z,21.80
2018-12-16T18:39:00.659Z,20.68
2018-12-16T18:41:31.273Z,21.73
2018-12-16T18:44:00.197Z,21.52
2018-12-16T18:46:29.048Z,22.70
2018-12-16T18:48:57.735Z,21.30
2018-12-16T18:51:26.475Z,23.03
2018-12-16T18:53:55.232Z,22.30
2018-12-16T18:56:24.035Z,22.53
2018-12-16T18:58:52.775Z,22.23
2018-12-16T19:01:21.480Z,22.73
2018-12-16T19:03:50.151Z,23.03
2018-12-16T19:06:18.823Z,22.23
2018-12-16T19:08:47.505Z,21.97
2018-12-16T19:11:16.793Z,23.53
2018-12-16T19:13:45.534Z,22.37
2018-12-16T19:16:14.272Z,24.70
2018-12-16T19:18:43.297Z,24.60
2018-12-16T19:21:12.218Z,23.87
2018-12-16T19:23:41.155Z,24.50
2018-12-16T19:26:09.855Z,24.63
2018-12-16T19:28:38.633Z,25.00
2018-12-16T19:31:07.479Z,24.63
2018-12-16T19:33:36.279Z,23.67
2018-12-16T19:36:04.975Z,24.07
2018-12-16T19:38:34.702Z,25.30
2018-12-16T19:41:03.551Z,24.77
2018-12-16T19:43:34.168Z,25.57
2018-12-16T19:46:03.079Z,25.30
2018-12-16T19:48:31.859Z,24.70
2018-12-16T19:51:00.690Z,25.07
2018-12-16T19:53:29.507Z,25.10
2018-12-16T19:55:58.208Z,25.47
2018-12-16T19:58:27.279Z,25.43
2018-12-16T20:00:56.133Z,24.77
2018-12-16T20:03:24.983Z,25.57
2018-12-16T20:05:59.284Z,25.30
2018-12-16T20:08:28.231Z,24.07
2018-12-16T20:10:56.923Z,24.73
2018-12-16T20:13:25.591Z,24.53
2018-12-16T20:16:01.287Z,25.07
2018-12-16T20:18:25.218Z,24.97
2018-12-16T20:20:53.977Z,24.43
2018-12-16T20:23:22.683Z,23.97
2018-12-16T20:25:51.436Z,24.60
2018-12-16T20:28:20.116Z,26.00
2018-12-16T20:30:48.862Z,23.70
2018-12-16T20:33:17.558Z,24.17
2018-12-16T20:35:47.196Z,23.77
2018-12-16T20:38:16.282Z,25.07
2018-12-16T20:40:45.028Z,23.77
2018-12-16T20:43:13.730Z,23.93
2018-12-16T20:45:42.429Z,26.17
2018-12-16T20:48:11.122Z,24.27
2018-12-16T20:50:39.867Z,24.20
2018-12-16T20:53:08.781Z,24.53
2018-12-16T20:55:37.471Z,24.33
2018-12-16T20:58:06.163Z,24.53
2018-12-16T21:00:34.844Z,24.13
2018-12-16T21:03:03.667Z,24.03
2018-12-16T21:05:32.526Z,24.67
2018-12-16T21:08:01.195Z,23.60
2018-12-16T21:10:30.030Z,24.60
2018-12-16T21:13:04.309Z,24.60
2018-12-16T21:15:38.391Z,24.80
2018-12-16T21:18:12.459Z,24.93
2018-12-16T21:20:42.184Z,24.80
2018-12-16T21:23:10.957Z,23.87
2018-12-16T21:25:39.686Z,24.33
2018-12-16T21:28:08.401Z,24.50
2018-12-16T21:30:37.341Z,24.47
2018-12-16T21:33:06.140Z,23.87
2018-12-16T21:35:34.931Z,24.37
2018-12-16T21:38:03.787Z,23.97
2018-12-16T21:40:32.456Z,24.50
2018-12-16T21:43:01.162Z,24.43
2018-12-16T21:45:30.147Z,23.30
2018-12-16T21:47:58.864Z,23.80
2018-12-16T21:50:28.469Z,22.57
2018-12-16T21:52:57.256Z,22.17
2018-12-16T21:55:25.942Z,23.73
2018-12-16T21:57:54.615Z,24.03
2018-12-16T22:00:23.388Z,24.57
2018-12-16T22:02:52.087Z,24.43
2018-12-16T22:05:25.163Z,24.10
2018-12-16T22:07:54.142Z,24.47
2018-12-16T22:10:22.815Z,24.13
2018-12-16T22:12:51.591Z,24.70
2018-12-16T22:15:20.328Z,24.57
2018-12-16T22:17:49.352Z,23.73
2018-12-16T22:20:18.099Z,24.07
2018-12-16T22:22:47.767Z,24.67
2018-12-16T22:25:16.518Z,25.20
2018-12-16T22:27:45.265Z,25.90
2018-12-16T22:30:14.134Z,24.60
2018-12-16T22:32:42.844Z,25.93
2018-12-16T22:35:11.648Z,25.43
2018-12-16T22:37:40.340Z,24.83
2018-12-16T22:40:09.209Z,24.30
2018-12-16T22:42:37.885Z,24.40
2018-12-16T22:45:07.684Z,24.90
2018-12-16T22:47:36.354Z,24.00
2018-12-16T22:50:05.806Z,23.80
2018-12-16T22:52:34.471Z,24.20
2018-12-16T22:55:03.272Z,24.90
2018-12-16T22:57:32.002Z,25.07
2018-12-16T23:00:00.667Z,23.93
2018-12-16T23:02:31.415Z,24.40
2018-12-16T23:05:00.116Z,24.17
2018-12-16T23:07:28.815Z,25.30
2018-12-16T23:09:57.585Z,24.97
2018-12-16T23:12:26.419Z,24.73
2018-12-16T23:14:55.091Z,23.87
2018-12-16T23:17:23.847Z,24.37
2018-12-16T23:19:58.952Z,24.63
2018-12-16T23:22:27.662Z,23.97
2018-12-16T23:24:56.606Z,25.30
2018-12-16T23:27:25.387Z,24.50
2018-12-16T23:29:54.123Z,24.43
2018-12-16T23:32:22.845Z,24.87
2018-12-16T23:34:51.573Z,22.83
2018-12-16T23:37:20.275Z,24.20
2018-12-16T23:39:49.043Z,25.27
2018-12-16T23:42:18.194Z,25.15
2018-12-16T23:44:47.008Z,24.30
2018-12-16T23:47:15.696Z,24.87
2018-12-16T23:49:44.509Z,25.13
2018-12-16T23:52:13.415Z,24.63
2018-12-16T23:54:42.142Z,24.90
2018-12-16T23:57:10.841Z,25.77
2018-12-16T23:59:39.901Z,24.33
